createdAt,value
2023-12-21T00:01:26.097Z,1.17
2023-12-21T00:03:54.181Z,1.04
2023-12-21T00:06:21.753Z,1.02
2023-12-21T00:08:49.261Z,1.00
2023-12-21T00:11:17.057Z,1.07
2023-12-21T00:13:45.784Z,0.99
2023-12-21T00:16:13.821Z,0.97
2023-12-21T00:18:41.828Z,1.03
2023-12-21T00:21:09.455Z,0.98
2023-12-21T00:23:36.953Z,0.97
2023-12-21T00:26:04.843Z,1.05
2023-12-21T00:28:32.509Z,1.04
2023-12-21T00:31:00.278Z,1.01
2023-12-21T00:33:28.386Z,0.97
2023-12-21T00:35:55.952Z,1.03
2023-12-21T00:38:23.484Z,1.03
2023-12-21T00:40:51.544Z,0.99
2023-12-21T00:43:19.030Z,0.99
2023-12-21T00:45:46.579Z,0.95
2023-12-21T00:48:16.270Z,1.00
2023-12-21T00:50:44.134Z,1.04
2023-12-21T00:53:11.662Z,0.95
2023-12-21T00:55:39.572Z,1.01
2023-12-21T00:58:07.127Z,1.01
2023-12-21T01:00:34.615Z,0.99
2023-12-21T01:03:02.558Z,1.00
2023-12-21T01:05:30.091Z,1.07
2023-12-21T01:07:57.630Z,1.13
2023-12-21T01:10:25.466Z,1.10
2023-12-21T01:12:53.252Z,1.19
2023-12-21T01:15:20.811Z,1.17
2023-12-21T01:17:48.937Z,1.24
2023-12-21T01:20:16.864Z,1.29
2023-12-21T01:22:44.539Z,1.29
2023-12-21T01:25:12.489Z,1.32
2023-12-21T01:27:40.020Z,1.32
2023-12-21T01:30:08.378Z,1.26
2023-12-21T01:32:36.273Z,1.27
2023-12-21T01:35:04.025Z,1.32
2023-12-21T01:37:31.745Z,1.40
2023-12-21T01:39:59.684Z,1.41
2023-12-21T01:42:27.241Z,1.41
2023-12-21T01:44:54.861Z,1.37
2023-12-21T01:47:23.044Z,1.37
2023-12-21T01:49:51.009Z,1.43
2023-12-21T01:52:19.915Z,1.43
2023-12-21T01:54:47.879Z,1.35
2023-12-21T01:57:16.150Z,1.37
2023-12-21T01:59:44.000Z,1.33
2023-12-21T02:02:11.929Z,1.34
2023-12-21T02:04:40.201Z,1.31
2023-12-21T02:07:07.963Z,1.29
2023-12-21T02:09:35.561Z,1.26
2023-12-21T02:12:03.582Z,1.23
2023-12-21T02:14:31.122Z,1.20
2023-12-21T02:17:03.361Z,1.22
2023-12-21T02:19:31.553Z,1.18
2023-12-21T02:22:03.284Z,1.18
2023-12-21T02:24:31.826Z,1.14
2023-12-21T02:27:00.591Z,1.17
2023-12-21T02:29:28.236Z,1.18
2023-12-21T02:31:56.321Z,1.09
2023-12-21T02:34:24.149Z,1.05
2023-12-21T02:36:51.925Z,1.05
2023-12-21T02:39:19.803Z,1.03
2023-12-21T02:41:49.107Z,1.02
2023-12-21T02:44:16.694Z,1.01
2023-12-21T02:46:44.553Z,0.98
2023-12-21T02:49:12.189Z,0.91
2023-12-21T02:51:39.733Z,1.04
2023-12-21T02:54:07.638Z,1.10
2023-12-21T02:56:35.201Z,1.11
2023-12-21T02:59:02.760Z,0.96
2023-12-21T03:01:30.665Z,0.89
2023-12-21T03:04:01.361Z,0.86
2023-12-21T03:06:28.956Z,0.80
2023-12-21T03:08:56.793Z,0.76
2023-12-21T03:11:24.384Z,0.73
2023-12-21T03:13:51.929Z,0.75
2023-12-21T03:16:20.128Z,0.75
2023-12-21T03:18:48.219Z,0.77
2023-12-21T03:21:16.476Z,0.69
2023-12-21T03:23:44.456Z,0.67
2023-12-21T03:26:12.413Z,0.67
2023-12-21T03:28:45.972Z,0.61
2023-12-21T03:31:18.154Z,0.62
2023-12-21T03:33:45.807Z,0.57
2023-12-21T03:36:14.141Z,0.59
2023-12-21T03:38:41.990Z,0.52
2023-12-21T03:41:09.594Z,0.42
2023-12-21T03:43:37.649Z,0.31
2023-12-21T03:46:09.298Z,0.30
2023-12-21T03:48:36.896Z,0.27
2023-12-21T03:51:05.001Z,0.36
2023-12-21T03:53:32.519Z,0.37
2023-12-21T03:55:59.977Z,0.32
2023-12-21T03:58:27.812Z,0.27
2023-12-21T04:00:55.508Z,0.24
2023-12-21T04:03:23.400Z,-0.06
2023-12-21T04:05:51.349Z,-0.09
2023-12-21T04:08:22.584Z,0.11
2023-12-21T04:10:50.573Z,0.26
2023-12-21T04:13:18.184Z,0.23
2023-12-21T04:15:45.715Z,0.22
2023-12-21T04:18:13.628Z,0.20
2023-12-21T04:20:41.170Z,0.21
2023-12-21T04:23:08.713Z,0.31
2023-12-21T04:25:36.700Z,0.36
2023-12-21T04:28:04.437Z,0.38
2023-12-21T04:30:31.974Z,0.48
2023-12-21T04:32:59.872Z,0.44
2023-12-21T04:35:27.486Z,0.38
2023-12-21T04:37:55.126Z,0.32
2023-12-21T04:40:22.948Z,0.31
2023-12-21T04:42:56.598Z,0.27
2023-12-21T04:45:24.711Z,0.38
2023-12-21T04:47:52.620Z,0.42
2023-12-21T04:50:21.359Z,0.43
2023-12-21T04:52:49.614Z,0.52
2023-12-21T04:55:17.744Z,0.48
2023-12-21T04:57:45.407Z,0.47
2023-12-21T05:00:13.723Z,0.57
2023-12-21T05:02:41.267Z,0.65
2023-12-21T05:05:08.969Z,0.62
2023-12-21T05:07:37.926Z,0.62
2023-12-21T05:10:06.732Z,0.61
2023-12-21T05:12:34.445Z,0.59
2023-12-21T05:15:02.322Z,0.52
2023-12-21T05:17:29.932Z,0.48
2023-12-21T05:19:57.566Z,0.39
2023-12-21T05:22:25.861Z,0.45
2023-12-21T05:24:53.459Z,0.52
2023-12-21T05:27:21.129Z,0.50
2023-12-21T05:29:48.985Z,0.44
2023-12-21T05:32:16.561Z,0.34
2023-12-21T05:34:44.293Z,0.45
2023-12-21T05:37:12.185Z,0.54
2023-12-21T05:39:40.501Z,0.58
2023-12-21T05:42:08.073Z,0.64
2023-12-21T05:44:35.986Z,0.77
2023-12-21T05:47:04.562Z,0.76
2023-12-21T05:49:32.134Z,0.76
2023-12-21T05:52:00.859Z,0.73
2023-12-21T05:54:28.781Z,0.75
2023-12-21T05:56:56.344Z,0.79
2023-12-21T05:59:24.170Z,0.84
2023-12-21T06:01:51.773Z,3.53
2023-12-21T06:04:19.794Z,6.63
2023-12-21T06:06:48.451Z,8.32
2023-12-21T06:09:16.364Z,8.37
2023-12-21T06:11:44.925Z,9.15
2023-12-21T06:14:13.359Z,6.95
2023-12-21T06:16:40.989Z,5.79
2023-12-21T06:19:12.029Z,4.83
2023-12-21T06:21:39.899Z,4.05
2023-12-21T06:24:08.115Z,3.66
2023-12-21T06:26:42.442Z,3.25
2023-12-21T06:29:10.971Z,2.86
2023-12-21T06:31:39.188Z,2.67
2023-12-21T06:34:06.953Z,2.50
2023-12-21T06:36:35.031Z,2.31
2023-12-21T06:39:03.927Z,2.08
2023-12-21T06:41:31.467Z,1.86
2023-12-21T06:43:59.074Z,1.75
2023-12-21T06:46:27.081Z,1.51
2023-12-21T06:48:54.741Z,1.50
2023-12-21T06:51:22.330Z,1.45
2023-12-21T06:53:50.675Z,1.38
2023-12-21T06:56:29.273Z,1.45
2023-12-21T06:59:03.549Z,1.49
2023-12-21T07:01:31.382Z,1.62
2023-12-21T07:03:59.906Z,1.70
2023-12-21T07:06:27.879Z,1.73
2023-12-21T07:08:56.245Z,1.77
2023-12-21T07:11:24.529Z,1.77
2023-12-21T07:13:52.467Z,1.76
2023-12-21T07:16:20.927Z,1.74
2023-12-21T07:18:48.612Z,1.74
2023-12-21T07:21:16.499Z,1.70
2023-12-21T07:23:44.064Z,1.74
2023-12-21T07:26:12.320Z,1.69
2023-12-21T07:28:41.839Z,1.73
2023-12-21T07:31:11.570Z,1.76
2023-12-21T07:33:39.251Z,1.68
2023-12-21T07:36:08.847Z,1.48
2023-12-21T07:38:37.961Z,1.40
2023-12-21T07:41:05.514Z,1.40
2023-12-21T07:43:33.390Z,1.51
2023-12-21T07:46:01.036Z,1.60
2023-12-21T07:48:28.731Z,1.62
2023-12-21T07:50:56.619Z,1.72
2023-12-21T07:53:24.154Z,1.81
2023-12-21T07:55:51.767Z,1.98
2023-12-21T07:58:19.788Z,2.08
2023-12-21T08:00:47.832Z,2.24
2023-12-21T08:03:15.784Z,2.41
2023-12-21T08:05:43.487Z,2.52
2023-12-21T08:08:10.975Z,2.59
2023-12-21T08:10:38.934Z,2.73
2023-12-21T08:13:09.671Z,2.86
2023-12-21T08:15:37.215Z,2.92
2023-12-21T08:18:06.411Z,2.96
2023-12-21T08:20:37.976Z,3.09
2023-12-21T08:23:05.780Z,3.18
2023-12-21T08:25:33.447Z,3.27
2023-12-21T08:28:01.148Z,3.37
2023-12-21T08:30:29.204Z,3.41
2023-12-21T08:32:56.913Z,3.52
2023-12-21T08:35:24.533Z,3.63
2023-12-21T08:37:52.433Z,3.71
2023-12-21T08:40:20.024Z,3.80
2023-12-21T08:42:47.835Z,3.90
2023-12-21T08:45:15.823Z,4.03
2023-12-21T08:47:43.768Z,4.17
2023-12-21T08:50:12.888Z,4.32
2023-12-21T08:52:42.939Z,4.46
2023-12-21T08:55:10.964Z,4.56
2023-12-21T08:57:38.706Z,4.69
2023-12-21T09:00:09.622Z,4.78
2023-12-21T09:02:38.729Z,4.92
2023-12-21T09:05:07.726Z,5.03
2023-12-21T09:07:35.580Z,5.17
2023-12-21T09:10:04.940Z,5.29
2023-12-21T09:12:33.013Z,5.36
2023-12-21T09:15:00.612Z,5.49
2023-12-21T09:17:28.306Z,5.62
2023-12-21T09:19:56.281Z,5.76
2023-12-21T09:22:23.839Z,5.84
2023-12-21T09:24:51.599Z,5.96
2023-12-21T09:27:19.483Z,6.04
2023-12-21T09:29:47.015Z,6.13
2023-12-21T09:32:14.578Z,6.22
2023-12-21T09:34:42.542Z,6.34
2023-12-21T09:37:10.342Z,6.46
2023-12-21T09:39:37.877Z,6.57
2023-12-21T09:42:06.763Z,6.73
2023-12-21T09:44:35.524Z,6.89
2023-12-21T09:47:08.006Z,7.07
2023-12-21T09:49:38.555Z,7.24
2023-12-21T09:52:08.639Z,7.39
2023-12-21T09:54:37.551Z,7.61
2023-12-21T09:57:05.928Z,7.75
2023-12-21T09:59:33.714Z,7.88
2023-12-21T10:02:02.465Z,7.86
2023-12-21T10:04:33.208Z,7.76
2023-12-21T10:07:01.036Z,7.70
2023-12-21T10:09:28.567Z,7.67
2023-12-21T10:11:56.432Z,7.69
2023-12-21T10:14:27.141Z,7.75
2023-12-21T10:16:56.225Z,7.77
2023-12-21T10:19:24.159Z,7.81
2023-12-21T10:21:52.522Z,7.75
2023-12-21T10:24:20.208Z,7.74
2023-12-21T10:26:51.459Z,7.70
2023-12-21T10:29:20.295Z,7.67
2023-12-21T10:31:49.856Z,7.63
2023-12-21T10:34:17.807Z,7.60
2023-12-21T10:36:46.378Z,7.61
2023-12-21T10:39:18.260Z,7.68
2023-12-21T10:41:46.350Z,7.79
2023-12-21T10:44:19.502Z,7.87
2023-12-21T10:46:48.938Z,7.96
2023-12-21T10:49:18.613Z,8.00
2023-12-21T10:51:46.607Z,8.11
2023-12-21T10:54:14.450Z,8.23
2023-12-21T10:56:47.108Z,8.39
2023-12-21T10:59:17.142Z,8.42
2023-12-21T11:01:45.156Z,8.50
2023-12-21T11:04:14.688Z,8.58
2023-12-21T11:06:43.618Z,8.75
2023-12-21T11:09:14.176Z,8.90
2023-12-21T11:11:41.703Z,9.10
2023-12-21T11:14:09.334Z,9.33
2023-12-21T11:16:42.675Z,9.43
2023-12-21T11:19:13.615Z,9.61
2023-12-21T11:21:41.754Z,9.72
2023-12-21T11:24:10.823Z,9.83
2023-12-21T11:26:38.754Z,9.87
2023-12-21T11:29:11.658Z,9.97
2023-12-21T11:31:40.650Z,10.11
2023-12-21T11:34:15.733Z,10.16
2023-12-21T11:36:43.651Z,10.27
2023-12-21T11:39:18.073Z,10.27
2023-12-21T11:41:59.697Z,10.34
2023-12-21T11:44:37.726Z,10.34
2023-12-21T11:47:09.330Z,10.43
2023-12-21T11:49:38.666Z,10.59
2023-12-21T11:52:06.578Z,10.57
2023-12-21T11:54:35.332Z,10.58
2023-12-21T11:57:13.686Z,10.79
2023-12-21T11:59:41.333Z,10.82
2023-12-21T12:02:11.790Z,10.90
2023-12-21T12:04:40.095Z,11.09
2023-12-21T12:07:07.837Z,11.23
2023-12-21T12:09:35.657Z,11.28
2023-12-21T12:12:03.820Z,11.36
2023-12-21T12:14:31.440Z,11.11
2023-12-21T12:16:58.955Z,11.23
2023-12-21T12:19:29.802Z,11.30
2023-12-21T12:21:57.542Z,11.29
2023-12-21T12:24:25.598Z,11.38
2023-12-21T12:26:53.964Z,11.57
2023-12-21T12:29:21.836Z,11.81
2023-12-21T12:31:50.061Z,11.86
2023-12-21T12:34:18.769Z,11.72
2023-12-21T12:36:54.024Z,11.53
2023-12-21T12:39:29.016Z,11.33
2023-12-21T12:41:59.107Z,11.21
2023-12-21T12:44:27.094Z,11.27
2023-12-21T12:46:56.248Z,11.30
2023-12-21T12:49:25.110Z,11.29
2023-12-21T12:51:53.450Z,11.36
2023-12-21T12:54:21.499Z,11.30
2023-12-21T12:56:50.317Z,11.23
2023-12-21T12:59:22.064Z,11.20
2023-12-21T13:01:49.954Z,11.14
2023-12-21T13:04:17.973Z,10.93
2023-12-21T13:06:50.524Z,10.75
2023-12-21T13:09:18.928Z,10.56
2023-12-21T13:11:47.261Z,10.46
2023-12-21T13:14:16.777Z,10.38
2023-12-21T13:16:46.304Z,10.22
2023-12-21T13:19:14.153Z,10.11
2023-12-21T13:21:41.819Z,10.03
2023-12-21T13:24:10.436Z,9.92
2023-12-21T13:26:37.980Z,9.87
2023-12-21T13:29:07.606Z,9.91
2023-12-21T13:31:35.735Z,10.05
2023-12-21T13:34:04.100Z,10.30
2023-12-21T13:36:32.688Z,10.56
2023-12-21T13:39:00.560Z,10.72
2023-12-21T13:41:28.199Z,10.86
2023-12-21T13:43:55.897Z,10.94
2023-12-21T13:46:25.284Z,11.13
2023-12-21T13:48:53.216Z,11.23
2023-12-21T13:51:20.943Z,11.26
2023-12-21T13:53:48.806Z,11.35
2023-12-21T13:56:16.460Z,11.37
2023-12-21T13:58:44.050Z,11.53
2023-12-21T14:01:11.978Z,11.58
2023-12-21T14:03:40.214Z,11.46
2023-12-21T14:06:07.992Z,11.41
2023-12-21T14:08:35.984Z,11.05
2023-12-21T14:11:03.904Z,10.79
2023-12-21T14:13:31.444Z,10.66
2023-12-21T14:15:59.228Z,10.47
2023-12-21T14:18:27.120Z,10.26
2023-12-21T14:20:55.751Z,10.11
2023-12-21T14:23:23.890Z,9.98
2023-12-21T14:25:53.032Z,9.89
2023-12-21T14:28:22.032Z,9.76
2023-12-21T14:30:51.456Z,9.64
2023-12-21T14:33:19.374Z,9.53
2023-12-21T14:35:49.435Z,9.44
2023-12-21T14:38:17.436Z,9.34
2023-12-21T14:40:46.594Z,9.27
2023-12-21T14:43:14.816Z,9.19
2023-12-21T14:45:42.511Z,9.04
2023-12-21T14:48:10.572Z,9.01
2023-12-21T14:50:38.200Z,8.97
2023-12-21T14:53:05.731Z,8.87
2023-12-21T14:55:35.431Z,8.79
2023-12-21T14:58:03.118Z,8.72
2023-12-21T15:00:33.434Z,8.66
2023-12-21T15:03:03.787Z,8.60
2023-12-21T15:05:31.417Z,8.54
2023-12-21T15:07:59.091Z,8.48
2023-12-21T15:10:27.777Z,8.47
2023-12-21T15:12:55.387Z,8.40
2023-12-21T15:15:22.996Z,8.36
2023-12-21T15:17:51.173Z,8.38
2023-12-21T15:20:20.206Z,8.31
2023-12-21T15:22:47.894Z,8.27
2023-12-21T15:25:16.011Z,8.26
2023-12-21T15:27:44.713Z,8.32
2023-12-21T15:30:12.850Z,8.30
2023-12-21T15:32:40.856Z,8.36
2023-12-21T15:35:08.638Z,8.35
2023-12-21T15:37:36.364Z,8.36
2023-12-21T15:40:05.213Z,8.41
2023-12-21T15:42:32.770Z,8.47
2023-12-21T15:45:00.328Z,8.45
2023-12-21T15:47:29.452Z,8.48
2023-12-21T15:49:57.160Z,8.51
2023-12-21T15:52:24.783Z,8.47
2023-12-21T15:54:52.612Z,8.44
2023-12-21T15:57:20.143Z,8.41
2023-12-21T15:59:47.630Z,8.33
2023-12-21T16:02:15.434Z,8.23
2023-12-21T16:04:43.646Z,8.24
2023-12-21T16:07:12.650Z,8.19
2023-12-21T16:09:40.251Z,8.16
2023-12-21T16:12:08.277Z,8.13
2023-12-21T16:14:35.961Z,8.88
2023-12-21T16:17:04.292Z,10.89
2023-12-21T16:19:33.067Z,12.29
2023-12-21T16:22:00.747Z,13.43
2023-12-21T16:24:28.339Z,14.03
2023-12-21T16:26:56.247Z,14.52
2023-12-21T16:29:23.782Z,14.55
2023-12-21T16:31:52.245Z,13.67
2023-12-21T16:34:20.367Z,12.48
2023-12-21T16:36:47.934Z,11.40
2023-12-21T16:39:16.612Z,10.81
2023-12-21T16:41:45.868Z,10.29
2023-12-21T16:44:13.383Z,9.59
2023-12-21T16:46:40.932Z,9.41
2023-12-21T16:49:08.918Z,9.30
2023-12-21T16:51:36.467Z,8.77
2023-12-21T16:54:04.293Z,8.68
2023-12-21T16:56:32.300Z,8.64
2023-12-21T16:58:59.834Z,8.72
2023-12-21T17:01:27.435Z,8.47
2023-12-21T17:03:58.556Z,8.13
2023-12-21T17:06:27.083Z,7.98
2023-12-21T17:08:54.917Z,7.87
2023-12-21T17:11:23.491Z,7.97
2023-12-21T17:13:53.160Z,8.05
2023-12-21T17:16:24.255Z,8.00
2023-12-21T17:18:52.422Z,7.96
2023-12-21T17:21:20.003Z,7.95
2023-12-21T17:23:47.955Z,7.91
2023-12-21T17:26:15.499Z,7.76
2023-12-21T17:28:43.586Z,7.42
2023-12-21T17:31:11.779Z,7.33
2023-12-21T17:33:39.403Z,7.35
2023-12-21T17:36:07.231Z,7.31
2023-12-21T17:38:35.203Z,7.03
2023-12-21T17:41:02.814Z,7.14
2023-12-21T17:43:30.449Z,7.22
2023-12-21T17:46:00.670Z,7.17
2023-12-21T17:48:28.759Z,7.22
2023-12-21T17:50:56.837Z,7.18
2023-12-21T17:53:24.810Z,7.14
2023-12-21T17:55:52.567Z,7.15
2023-12-21T17:58:20.358Z,7.09
2023-12-21T18:00:48.304Z,7.03
2023-12-21T18:03:16.151Z,7.02
2023-12-21T18:05:45.392Z,7.09
2023-12-21T18:08:14.623Z,7.06
2023-12-21T18:10:42.546Z,7.08
2023-12-21T18:13:10.410Z,7.05
2023-12-21T18:15:37.985Z,7.09
2023-12-21T18:18:05.904Z,7.12
2023-12-21T18:20:33.589Z,7.06
2023-12-21T18:23:01.127Z,7.10
2023-12-21T18:25:28.958Z,7.18
2023-12-21T18:27:56.561Z,7.26
2023-12-21T18:30:24.128Z,7.33
2023-12-21T18:32:52.044Z,7.36
2023-12-21T18:35:19.705Z,7.36
2023-12-21T18:37:47.557Z,7.30
2023-12-21T18:40:15.788Z,7.33
2023-12-21T18:42:43.761Z,7.30
2023-12-21T18:45:11.422Z,7.29
2023-12-21T18:47:39.354Z,7.23
2023-12-21T18:50:07.510Z,7.17
2023-12-21T18:52:35.248Z,7.10
2023-12-21T18:55:03.658Z,7.06
2023-12-21T18:57:32.947Z,7.02
2023-12-21T19:00:00.757Z,6.97
2023-12-21T19:02:28.697Z,6.96
2023-12-21T19:04:56.352Z,6.98
2023-12-21T19:07:23.927Z,6.94
2023-12-21T19:09:51.818Z,6.91
2023-12-21T19:12:21.791Z,6.93
2023-12-21T19:14:49.424Z,6.94
2023-12-21T19:17:17.372Z,6.95
2023-12-21T19:19:45.121Z,6.96
2023-12-21T19:22:12.717Z,7.34
2023-12-21T19:24:40.587Z,10.11
2023-12-21T19:27:08.153Z,11.37
2023-12-21T19:29:35.725Z,10.36
2023-12-21T19:32:03.609Z,9.68
2023-12-21T19:34:31.230Z,11.66
2023-12-21T19:36:59.038Z,10.65
2023-12-21T19:39:26.898Z,9.85
2023-12-21T19:41:54.527Z,9.31
2023-12-21T19:44:22.157Z,8.92
2023-12-21T19:46:50.058Z,8.69
2023-12-21T19:49:17.767Z,8.52
2023-12-21T19:51:45.404Z,8.39
2023-12-21T19:54:15.170Z,8.19
2023-12-21T19:56:45.985Z,8.06
2023-12-21T19:59:20.084Z,7.92
2023-12-21T20:01:51.320Z,7.73
2023-12-21T20:04:19.491Z,7.64
2023-12-21T20:06:49.435Z,7.59
2023-12-21T20:09:17.152Z,7.63
2023-12-21T20:11:45.212Z,7.59
2023-12-21T20:14:12.922Z,7.49
2023-12-21T20:16:40.531Z,7.37
2023-12-21T20:19:08.975Z,7.38
2023-12-21T20:21:36.670Z,7.35
2023-12-21T20:24:04.404Z,7.23
2023-12-21T20:26:32.238Z,7.25
2023-12-21T20:28:59.822Z,7.17
2023-12-21T20:31:28.594Z,7.22
2023-12-21T20:33:56.502Z,7.20
2023-12-21T20:36:24.127Z,7.21
2023-12-21T20:38:51.694Z,7.20
2023-12-21T20:41:19.535Z,7.17
2023-12-21T20:43:48.405Z,7.09
2023-12-21T20:46:15.972Z,7.07
2023-12-21T20:48:43.821Z,7.12
2023-12-21T20:51:11.419Z,7.14
2023-12-21T20:53:39.091Z,7.13
2023-12-21T20:56:07.187Z,6.98
2023-12-21T20:58:36.020Z,6.96
2023-12-21T21:01:04.988Z,6.87
2023-12-21T21:03:37.947Z,6.87
2023-12-21T21:06:06.196Z,6.80
2023-12-21T21:08:34.082Z,6.69
2023-12-21T21:11:01.704Z,6.67
2023-12-21T21:13:29.537Z,6.66
2023-12-21T21:15:57.386Z,6.64
2023-12-21T21:18:24.964Z,6.61
2023-12-21T21:20:53.269Z,6.57
2023-12-21T21:23:21.082Z,6.51
2023-12-21T21:25:48.683Z,6.45
2023-12-21T21:28:16.431Z,6.45
2023-12-21T21:30:56.711Z,6.41
2023-12-21T21:33:28.348Z,6.43
2023-12-21T21:35:56.343Z,6.42
2023-12-21T21:38:23.932Z,6.40
2023-12-21T21:40:53.838Z,6.40
2023-12-21T21:43:21.758Z,6.30
2023-12-21T21:45:49.278Z,6.12
2023-12-21T21:48:17.654Z,6.04
2023-12-21T21:50:45.809Z,5.99
2023-12-21T21:53:13.379Z,6.04
2023-12-21T21:55:41.568Z,6.10
2023-12-21T21:58:09.593Z,6.15
2023-12-21T22:00:37.132Z,6.26
2023-12-21T22:03:07.275Z,6.34
2023-12-21T22:05:34.997Z,6.38
2023-12-21T22:08:02.706Z,6.41
2023-12-21T22:10:30.621Z,6.41
2023-12-21T22:12:58.189Z,6.35
2023-12-21T22:15:25.677Z,6.38
2023-12-21T22:17:53.573Z,6.42
2023-12-21T22:20:21.236Z,6.46
2023-12-21T22:22:48.744Z,6.45
2023-12-21T22:25:16.998Z,6.46
2023-12-21T22:27:44.550Z,6.51
2023-12-21T22:30:12.307Z,6.48
2023-12-21T22:32:40.422Z,6.50
2023-12-21T22:35:08.385Z,6.54
2023-12-21T22:37:35.975Z,6.64
2023-12-21T22:40:03.949Z,6.62
2023-12-21T22:42:31.460Z,6.66
2023-12-21T22:44:58.983Z,6.68
2023-12-21T22:47:26.969Z,6.70
2023-12-21T22:49:54.710Z,6.73
2023-12-21T22:52:22.266Z,6.70
2023-12-21T22:54:50.097Z,6.76
2023-12-21T22:57:17.642Z,6.78
2023-12-21T22:59:45.136Z,6.84
2023-12-21T23:02:12.975Z,6.86
2023-12-21T23:04:40.560Z,6.87
2023-12-21T23:07:09.213Z,6.95
2023-12-21T23:09:39.699Z,6.96
2023-12-21T23:12:07.971Z,6.97
2023-12-21T23:14:35.683Z,7.03
2023-12-21T23:17:04.279Z,7.05
2023-12-21T23:19:31.834Z,7.06
2023-12-21T23:21:59.298Z,7.12
2023-12-21T23:24:27.081Z,7.15
2023-12-21T23:26:54.558Z,7.18
2023-12-21T23:29:23.587Z,7.21
2023-12-21T23:31:51.466Z,7.25
2023-12-21T23:34:19.179Z,7.23
2023-12-21T23:36:46.780Z,7.24
2023-12-21T23:39:14.629Z,7.22
2023-12-21T23:41:42.515Z,7.26
2023-12-21T23:44:10.784Z,7.23
2023-12-21T23:46:38.613Z,7.21
2023-12-21T23:49:06.266Z,7.17
2023-12-21T23:51:33.979Z,7.19
2023-12-21T23:54:01.779Z,7.17
2023-12-21T23:56:29.265Z,7.18
2023-12-21T23:58:56.874Z,7.20
